sensor_id;sensor_type;location;lat;lon;timestamp;temperature;humidity
41838;DHT22;27511;52.042;5.178;2023-08-06T00:01:26;19.80;99.90
41838;DHT22;27511;52.042;5.178;2023-08-06T00:03:52;19.90;99.90
41838;DHT22;27511;52.042;5.178;2023-08-06T00:06:17;19.80;99.90
41838;DHT22;27511;52.042;5.178;2023-08-06T00:08:42;19.80;99.90
41838;DHT22;27511;52.042;5.178;2023-08-06T00:11:08;19.80;99.90
41838;DHT22;27511;52.042;5.178;2023-08-06T00:13:33;19.80;99.90
41838;DHT22;27511;52.042;5.178;2023-08-06T00:16:09;19.70;99.90
41838;DHT22;27511;52.042;5.178;2023-08-06T00:18:34;19.80;99.90
41838;DHT22;27511;52.042;5.178;2023-08-06T00:21:00;19.70;99.90
41838;DHT22;27511;52.042;5.178;2023-08-06T00:23:25;19.70;99.90
41838;DHT22;27511;52.042;5.178;2023-08-06T00:25:51;19.70;99.90
41838;DHT22;27511;52.042;5.178;2023-08-06T00:28:16;19.70;99.90
41838;DHT22;27511;52.042;5.178;2023-08-06T00:30:42;19.60;99.90
41838;DHT22;27511;52.042;5.178;2023-08-06T00:33:07;19.70;99.90
41838;DHT22;27511;52.042;5.178;2023-08-06T00:35:33;19.80;99.90
41838;DHT22;27511;52.042;5.178;2023-08-06T00:37:58;19.80;99.90
41838;DHT22;27511;52.042;5.178;2023-08-06T00:40:24;19.80;99.90
41838;DHT22;27511;52.042;5.178;2023-08-06T00:42:49;19.70;99.90
41838;DHT22;27511;52.042;5.178;2023-08-06T00:45:15;19.70;99.90
41838;DHT22;27511;52.042;5.178;2023-08-06T00:47:41;19.70;99.90
41838;DHT22;27511;52.042;5.178;2023-08-06T00:50:07;19.70;99.90
41838;DHT22;27511;52.042;5.178;2023-08-06T00:52:33;19.70;99.90
41838;DHT22;27511;52.042;5.178;2023-08-06T00:54:58;19.70;99.90
41838;DHT22;27511;52.042;5.178;2023-08-06T00:57:24;19.70;99.90
41838;DHT22;27511;52.042;5.178;2023-08-06T00:59:50;19.70;99.90
41838;DHT22;27511;52.042;5.178;2023-08-06T01:02:16;19.70;99.90
41838;DHT22;27511;52.042;5.178;2023-08-06T01:04:41;19.80;99.90
41838;DHT22;27511;52.042;5.178;2023-08-06T01:09:55;19.80;99.90
41838;DHT22;27511;52.042;5.178;2023-08-06T01:15:02;19.80;99.90
41838;DHT22;27511;52.042;5.178;2023-08-06T01:17:30;19.80;99.90
41838;DHT22;27511;52.042;5.178;2023-08-06T01:19:56;19.80;99.90
41838;DHT22;27511;52.042;5.178;2023-08-06T01:22:21;19.80;99.90
41838;DHT22;27511;52.042;5.178;2023-08-06T01:24:47;19.70;99.90
41838;DHT22;27511;52.042;5.178;2023-08-06T01:30:09;19.70;99.90
41838;DHT22;27511;52.042;5.178;2023-08-06T01:32:37;19.80;99.90
41838;DHT22;27511;52.042;5.178;2023-08-06T01:35:05;19.80;99.90
41838;DHT22;27511;52.042;5.178;2023-08-06T01:37:31;19.70;99.90
41838;DHT22;27511;52.042;5.178;2023-08-06T01:39:57;19.70;99.90
41838;DHT22;27511;52.042;5.178;2023-08-06T01:42:22;19.80;99.90
41838;DHT22;27511;52.042;5.178;2023-08-06T01:44:48;19.70;99.90
41838;DHT22;27511;52.042;5.178;2023-08-06T01:47:13;19.70;99.90
41838;DHT22;27511;52.042;5.178;2023-08-06T01:49:39;19.80;99.90
41838;DHT22;27511;52.042;5.178;2023-08-06T01:52:04;19.80;99.90
41838;DHT22;27511;52.042;5.178;2023-08-06T01:54:30;19.70;99.90
41838;DHT22;27511;52.042;5.178;2023-08-06T01:56:55;19.70;99.90
41838;DHT22;27511;52.042;5.178;2023-08-06T01:59:21;19.70;99.90
41838;DHT22;27511;52.042;5.178;2023-08-06T02:01:46;19.70;99.90
41838;DHT22;27511;52.042;5.178;2023-08-06T02:04:12;19.70;99.90
41838;DHT22;27511;52.042;5.178;2023-08-06T02:06:37;19.70;99.90
41838;DHT22;27511;52.042;5.178;2023-08-06T02:09:03;19.70;99.90
41838;DHT22;27511;52.042;5.178;2023-08-06T02:11:28;19.80;99.90
41838;DHT22;27511;52.042;5.178;2023-08-06T02:13:54;19.70;99.90
41838;DHT22;27511;52.042;5.178;2023-08-06T02:16:19;19.70;99.90
41838;DHT22;27511;52.042;5.178;2023-08-06T02:18:45;19.80;99.90
41838;DHT22;27511;52.042;5.178;2023-08-06T02:21:10;19.70;99.90
41838;DHT22;27511;52.042;5.178;2023-08-06T02:23:36;19.70;99.90
41838;DHT22;27511;52.042;5.178;2023-08-06T02:26:02;19.70;99.90
41838;DHT22;27511;52.042;5.178;2023-08-06T02:28:28;19.70;99.90
41838;DHT22;27511;52.042;5.178;2023-08-06T02:30:54;19.70;99.90
41838;DHT22;27511;52.042;5.178;2023-08-06T02:33:19;19.70;99.90
41838;DHT22;27511;52.042;5.178;2023-08-06T02:35:45;19.70;99.90
41838;DHT22;27511;52.042;5.178;2023-08-06T02:38:13;19.70;99.90
41838;DHT22;27511;52.042;5.178;2023-08-06T02:40:47;19.70;99.90
41838;DHT22;27511;52.042;5.178;2023-08-06T02:43:13;19.70;99.90
41838;DHT22;27511;52.042;5.178;2023-08-06T02:45:38;19.70;99.90
41838;DHT22;27511;52.042;5.178;2023-08-06T02:48:04;19.70;99.90
41838;DHT22;27511;52.042;5.178;2023-08-06T02:50:29;19.70;99.90
41838;DHT22;27511;52.042;5.178;2023-08-06T02:52:55;19.70;99.90
41838;DHT22;27511;52.042;5.178;2023-08-06T02:55:20;19.70;99.90
41838;DHT22;27511;52.042;5.178;2023-08-06T02:57:46;19.70;99.90
41838;DHT22;27511;52.042;5.178;2023-08-06T03:00:11;19.70;99.90
41838;DHT22;27511;52.042;5.178;2023-08-06T03:02:37;19.70;99.90
41838;DHT22;27511;52.042;5.178;2023-08-06T03:05:02;19.70;99.90
41838;DHT22;27511;52.042;5.178;2023-08-06T03:07:29;19.70;99.90
41838;DHT22;27511;52.042;5.178;2023-08-06T03:09:54;19.70;99.90
41838;DHT22;27511;52.042;5.178;2023-08-06T03:12:20;19.80;99.90
41838;DHT22;27511;52.042;5.178;2023-08-06T03:14:45;19.80;99.90
41838;DHT22;27511;52.042;5.178;2023-08-06T03:17:11;19.70;99.90
41838;DHT22;27511;52.042;5.178;2023-08-06T03:19:36;19.70;99.90
41838;DHT22;27511;52.042;5.178;2023-08-06T03:22:02;19.70;99.90
41838;DHT22;27511;52.042;5.178;2023-08-06T03:24:27;19.70;99.90
41838;DHT22;27511;52.042;5.178;2023-08-06T03:26:53;19.70;99.90
41838;DHT22;27511;52.042;5.178;2023-08-06T03:29:18;19.70;99.90
41838;DHT22;27511;52.042;5.178;2023-08-06T03:31:44;19.70;99.90
41838;DHT22;27511;52.042;5.178;2023-08-06T03:34:09;19.70;99.90
41838;DHT22;27511;52.042;5.178;2023-08-06T03:36:35;19.70;99.90
41838;DHT22;27511;52.042;5.178;2023-08-06T03:39:00;19.60;99.90
41838;DHT22;27511;52.042;5.178;2023-08-06T03:41:26;19.60;99.90
41838;DHT22;27511;52.042;5.178;2023-08-06T03:43:51;19.60;99.90
41838;DHT22;27511;52.042;5.178;2023-08-06T03:46:17;19.70;99.90
41838;DHT22;27511;52.042;5.178;2023-08-06T03:48:42;19.60;99.90
41838;DHT22;27511;52.042;5.178;2023-08-06T03:51:08;19.60;99.90
41838;DHT22;27511;52.042;5.178;2023-08-06T03:53:33;19.50;99.90
41838;DHT22;27511;52.042;5.178;2023-08-06T03:55:59;19.50;99.90
41838;DHT22;27511;52.042;5.178;2023-08-06T03:58:25;19.50;99.90
41838;DHT22;27511;52.042;5.178;2023-08-06T04:00:57;19.50;99.90
41838;DHT22;27511;52.042;5.178;2023-08-06T04:03:22;19.50;99.90
41838;DHT22;27511;52.042;5.178;2023-08-06T04:05:48;19.50;99.90
41838;DHT22;27511;52.042;5.178;2023-08-06T04:08:13;19.50;99.90
41838;DHT22;27511;52.042;5.178;2023-08-06T04:10:39;19.50;99.90
41838;DHT22;27511;52.042;5.178;2023-08-06T04:13:04;19.50;99.90
41838;DHT22;27511;52.042;5.178;2023-08-06T04:15:30;19.60;99.90
41838;DHT22;27511;52.042;5.178;2023-08-06T04:17:58;19.50;99.90
41838;DHT22;27511;52.042;5.178;2023-08-06T04:20:24;19.60;99.90
41838;DHT22;27511;52.042;5.178;2023-08-06T04:22:49;19.50;99.90
41838;DHT22;27511;52.042;5.178;2023-08-06T04:25:15;19.60;99.90
41838;DHT22;27511;52.042;5.178;2023-08-06T04:27:46;19.60;99.90
41838;DHT22;27511;52.042;5.178;2023-08-06T04:30:12;19.60;99.90
41838;DHT22;27511;52.042;5.178;2023-08-06T04:32:37;19.60;99.90
41838;DHT22;27511;52.042;5.178;2023-08-06T04:35:03;19.60;99.90
41838;DHT22;27511;52.042;5.178;2023-08-06T04:37:29;19.60;99.90
41838;DHT22;27511;52.042;5.178;2023-08-06T04:39:54;19.60;99.90
41838;DHT22;27511;52.042;5.178;2023-08-06T04:42:20;19.60;99.90
41838;DHT22;27511;52.042;5.178;2023-08-06T04:44:45;19.50;99.90
41838;DHT22;27511;52.042;5.178;2023-08-06T04:47:10;19.50;99.90
41838;DHT22;27511;52.042;5.178;2023-08-06T04:49:36;19.60;99.90
41838;DHT22;27511;52.042;5.178;2023-08-06T04:52:01;19.50;99.90
41838;DHT22;27511;52.042;5.178;2023-08-06T04:54:27;19.50;99.90
41838;DHT22;27511;52.042;5.178;2023-08-06T04:56:52;19.50;99.90
41838;DHT22;27511;52.042;5.178;2023-08-06T04:59:18;19.50;99.90
41838;DHT22;27511;52.042;5.178;2023-08-06T05:01:44;19.60;99.90
41838;DHT22;27511;52.042;5.178;2023-08-06T05:04:09;19.70;99.90
41838;DHT22;27511;52.042;5.178;2023-08-06T05:06:35;19.60;99.90
41838;DHT22;27511;52.042;5.178;2023-08-06T05:09:03;19.60;99.90
41838;DHT22;27511;52.042;5.178;2023-08-06T05:11:29;19.50;99.90
41838;DHT22;27511;52.042;5.178;2023-08-06T05:13:54;19.50;99.90
41838;DHT22;27511;52.042;5.178;2023-08-06T05:16:20;19.60;99.90
41838;DHT22;27511;52.042;5.178;2023-08-06T05:18:45;19.50;99.90
41838;DHT22;27511;52.042;5.178;2023-08-06T05:21:11;19.40;99.90
41838;DHT22;27511;52.042;5.178;2023-08-06T05:23:36;19.40;99.90
41838;DHT22;27511;52.042;5.178;2023-08-06T05:26:02;19.50;99.90
41838;DHT22;27511;52.042;5.178;2023-08-06T05:28:27;19.40;99.90
41838;DHT22;27511;52.042;5.178;2023-08-06T05:30:53;19.20;99.90
41838;DHT22;27511;52.042;5.178;2023-08-06T05:33:34;19.40;99.90
41838;DHT22;27511;52.042;5.178;2023-08-06T05:36:00;19.50;99.90
41838;DHT22;27511;52.042;5.178;2023-08-06T05:38:26;19.30;99.90
41838;DHT22;27511;52.042;5.178;2023-08-06T05:40:51;19.40;99.90
41838;DHT22;27511;52.042;5.178;2023-08-06T05:43:17;19.10;99.90
41838;DHT22;27511;52.042;5.178;2023-08-06T05:45:45;18.90;99.90
41838;DHT22;27511;52.042;5.178;2023-08-06T05:48:14;19.00;99.90
41838;DHT22;27511;52.042;5.178;2023-08-06T05:50:39;19.20;99.90
41838;DHT22;27511;52.042;5.178;2023-08-06T05:53:05;19.20;99.90
41838;DHT22;27511;52.042;5.178;2023-08-06T05:55:30;19.30;99.90
41838;DHT22;27511;52.042;5.178;2023-08-06T05:57:57;19.50;99.90
41838;DHT22;27511;52.042;5.178;2023-08-06T06:00:23;19.30;99.90
41838;DHT22;27511;52.042;5.178;2023-08-06T06:02:48;19.30;99.90
41838;DHT22;27511;52.042;5.178;2023-08-06T06:05:14;19.30;99.90
41838;DHT22;27511;52.042;5.178;2023-08-06T06:07:39;19.30;99.90
41838;DHT22;27511;52.042;5.178;2023-08-06T06:10:05;19.40;99.90
41838;DHT22;27511;52.042;5.178;2023-08-06T06:12:30;19.50;99.90
41838;DHT22;27511;52.042;5.178;2023-08-06T06:14:56;19.20;99.90
41838;DHT22;27511;52.042;5.178;2023-08-06T06:17:21;19.20;99.90
41838;DHT22;27511;52.042;5.178;2023-08-06T06:19:47;19.20;99.90
41838;DHT22;27511;52.042;5.178;2023-08-06T06:22:13;19.10;99.90
41838;DHT22;27511;52.042;5.178;2023-08-06T06:24:39;19.00;99.90
41838;DHT22;27511;52.042;5.178;2023-08-06T06:27:04;19.00;99.90
41838;DHT22;27511;52.042;5.178;2023-08-06T06:29:30;19.00;99.90
41838;DHT22;27511;52.042;5.178;2023-08-06T06:31:55;18.90;99.90
41838;DHT22;27511;52.042;5.178;2023-08-06T06:34:21;18.90;99.90
41838;DHT22;27511;52.042;5.178;2023-08-06T06:36:47;18.80;99.90
41838;DHT22;27511;52.042;5.178;2023-08-06T06:39:13;18.90;99.90
41838;DHT22;27511;52.042;5.178;2023-08-06T06:41:38;18.90;99.90
41838;DHT22;27511;52.042;5.178;2023-08-06T06:44:05;18.80;99.90
41838;DHT22;27511;52.042;5.178;2023-08-06T06:46:30;18.90;99.90
41838;DHT22;27511;52.042;5.178;2023-08-06T06:48:56;18.80;99.90
41838;DHT22;27511;52.042;5.178;2023-08-06T06:51:21;18.70;99.90
41838;DHT22;27511;52.042;5.178;2023-08-06T06:53:47;18.70;99.90
41838;DHT22;27511;52.042;5.178;2023-08-06T06:56:13;18.60;99.90
41838;DHT22;27511;52.042;5.178;2023-08-06T06:58:38;18.70;99.90
41838;DHT22;27511;52.042;5.178;2023-08-06T07:01:07;18.70;99.90
41838;DHT22;27511;52.042;5.178;2023-08-06T07:03:35;18.70;99.90
41838;DHT22;27511;52.042;5.178;2023-08-06T07:06:01;18.30;99.90
41838;DHT22;27511;52.042;5.178;2023-08-06T07:08:26;18.40;99.90
41838;DHT22;27511;52.042;5.178;2023-08-06T07:13:27;18.60;99.90
41838;DHT22;27511;52.042;5.178;2023-08-06T07:15:53;18.80;99.90
41838;DHT22;27511;52.042;5.178;2023-08-06T07:18:19;18.60;99.90
41838;DHT22;27511;52.042;5.178;2023-08-06T07:20:48;18.30;99.90
41838;DHT22;27511;52.042;5.178;2023-08-06T07:23:14;18.10;99.90
41838;DHT22;27511;52.042;5.178;2023-08-06T07:25:39;18.20;99.90
41838;DHT22;27511;52.042;5.178;2023-08-06T07:28:05;18.40;99.90
41838;DHT22;27511;52.042;5.178;2023-08-06T07:30:31;18.50;99.90
41838;DHT22;27511;52.042;5.178;2023-08-06T07:32:56;18.40;99.90
41838;DHT22;27511;52.042;5.178;2023-08-06T07:35:22;18.30;99.90
41838;DHT22;27511;52.042;5.178;2023-08-06T07:37:47;18.40;99.90
41838;DHT22;27511;52.042;5.178;2023-08-06T07:40:13;18.50;99.90
41838;DHT22;27511;52.042;5.178;2023-08-06T07:42:39;18.40;99.90
41838;DHT22;27511;52.042;5.178;2023-08-06T07:45:04;18.10;99.90
41838;DHT22;27511;52.042;5.178;2023-08-06T07:47:30;18.20;99.90
41838;DHT22;27511;52.042;5.178;2023-08-06T07:49:55;18.40;99.90
41838;DHT22;27511;52.042;5.178;2023-08-06T07:52:21;18.40;99.90
41838;DHT22;27511;52.042;5.178;2023-08-06T07:54:46;18.50;99.90
41838;DHT22;27511;52.042;5.178;2023-08-06T07:57:12;18.60;99.90
41838;DHT22;27511;52.042;5.178;2023-08-06T07:59:39;18.60;99.90
41838;DHT22;27511;52.042;5.178;2023-08-06T08:02:04;18.70;99.90
41838;DHT22;27511;52.042;5.178;2023-08-06T08:04:30;18.70;99.90
41838;DHT22;27511;52.042;5.178;2023-08-06T08:06:56;18.70;99.90
41838;DHT22;27511;52.042;5.178;2023-08-06T08:09:21;18.90;99.90
41838;DHT22;27511;52.042;5.178;2023-08-06T08:11:47;18.80;99.90
41838;DHT22;27511;52.042;5.178;2023-08-06T08:14:12;18.90;99.90
41838;DHT22;27511;52.042;5.178;2023-08-06T08:16:38;19.00;99.90
41838;DHT22;27511;52.042;5.178;2023-08-06T08:19:03;19.00;99.90
41838;DHT22;27511;52.042;5.178;2023-08-06T08:21:29;19.10;99.90
41838;DHT22;27511;52.042;5.178;2023-08-06T08:23:54;19.00;99.90
41838;DHT22;27511;52.042;5.178;2023-08-06T08:26:20;19.00;99.90
41838;DHT22;27511;52.042;5.178;2023-08-06T08:28:45;18.90;99.90
41838;DHT22;27511;52.042;5.178;2023-08-06T08:31:11;19.00;99.90
41838;DHT22;27511;52.042;5.178;2023-08-06T08:33:40;19.00;99.90
41838;DHT22;27511;52.042;5.178;2023-08-06T08:36:05;19.00;99.90
41838;DHT22;27511;52.042;5.178;2023-08-06T08:38:31;19.20;99.90
41838;DHT22;27511;52.042;5.178;2023-08-06T08:40:56;19.10;99.90
41838;DHT22;27511;52.042;5.178;2023-08-06T08:43:22;19.00;99.90
41838;DHT22;27511;52.042;5.178;2023-08-06T08:45:51;18.90;99.90
41838;DHT22;27511;52.042;5.178;2023-08-06T08:48:17;18.90;99.90
41838;DHT22;27511;52.042;5.178;2023-08-06T08:50:44;18.90;99.90
41838;DHT22;27511;52.042;5.178;2023-08-06T08:53:10;19.00;99.90
41838;DHT22;27511;52.042;5.178;2023-08-06T08:55:37;19.00;99.90
41838;DHT22;27511;52.042;5.178;2023-08-06T08:58:03;18.80;99.90
41838;DHT22;27511;52.042;5.178;2023-08-06T09:00:28;18.60;99.90
41838;DHT22;27511;52.042;5.178;2023-08-06T09:02:54;18.80;99.90
41838;DHT22;27511;52.042;5.178;2023-08-06T09:05:20;19.10;99.90
41838;DHT22;27511;52.042;5.178;2023-08-06T09:07:47;19.10;99.90
41838;DHT22;27511;52.042;5.178;2023-08-06T09:10:13;19.00;99.90
41838;DHT22;27511;52.042;5.178;2023-08-06T09:12:39;19.00;99.90
41838;DHT22;27511;52.042;5.178;2023-08-06T09:15:05;19.00;99.90
41838;DHT22;27511;52.042;5.178;2023-08-06T09:17:31;19.00;99.90
41838;DHT22;27511;52.042;5.178;2023-08-06T09:19:56;18.90;99.90
41838;DHT22;27511;52.042;5.178;2023-08-06T09:22:22;19.10;99.90
41838;DHT22;27511;52.042;5.178;2023-08-06T09:24:48;18.90;99.90
41838;DHT22;27511;52.042;5.178;2023-08-06T09:27:14;18.70;99.90
41838;DHT22;27511;52.042;5.178;2023-08-06T09:29:43;18.70;99.90
41838;DHT22;27511;52.042;5.178;2023-08-06T09:32:08;18.80;99.90
41838;DHT22;27511;52.042;5.178;2023-08-06T09:34:34;18.80;99.90
41838;DHT22;27511;52.042;5.178;2023-08-06T09:36:59;18.90;99.90
41838;DHT22;27511;52.042;5.178;2023-08-06T09:39:29;18.90;99.90
41838;DHT22;27511;52.042;5.178;2023-08-06T09:41:58;18.90;99.90
41838;DHT22;27511;52.042;5.178;2023-08-06T09:44:25;18.90;99.90
41838;DHT22;27511;52.042;5.178;2023-08-06T09:46:51;18.80;99.90
41838;DHT22;27511;52.042;5.178;2023-08-06T09:49:17;18.90;99.90
41838;DHT22;27511;52.042;5.178;2023-08-06T09:51:43;18.90;99.90
41838;DHT22;27511;52.042;5.178;2023-08-06T09:54:11;18.90;99.90
41838;DHT22;27511;52.042;5.178;2023-08-06T09:56:37;18.90;99.90
41838;DHT22;27511;52.042;5.178;2023-08-06T09:59:06;18.80;99.90
41838;DHT22;27511;52.042;5.178;2023-08-06T10:01:32;18.80;99.90
41838;DHT22;27511;52.042;5.178;2023-08-06T10:03:58;18.90;99.90
41838;DHT22;27511;52.042;5.178;2023-08-06T10:06:24;18.70;99.90
41838;DHT22;27511;52.042;5.178;2023-08-06T10:08:51;18.90;99.90
41838;DHT22;27511;52.042;5.178;2023-08-06T10:11:17;18.90;99.90
41838;DHT22;27511;52.042;5.178;2023-08-06T10:13:42;19.00;99.90
41838;DHT22;27511;52.042;5.178;2023-08-06T10:16:08;19.00;99.90
41838;DHT22;27511;52.042;5.178;2023-08-06T10:18:35;18.90;99.90
41838;DHT22;27511;52.042;5.178;2023-08-06T10:21:02;18.90;99.90
41838;DHT22;27511;52.042;5.178;2023-08-06T10:23:34;19.00;99.90
41838;DHT22;27511;52.042;5.178;2023-08-06T10:26:00;19.20;99.90
41838;DHT22;27511;52.042;5.178;2023-08-06T10:28:36;19.20;99.90
41838;DHT22;27511;52.042;5.178;2023-08-06T10:31:02;19.20;99.90
41838;DHT22;27511;52.042;5.178;2023-08-06T10:33:41;19.10;99.90
41838;DHT22;27511;52.042;5.178;2023-08-06T10:36:08;19.00;99.90
41838;DHT22;27511;52.042;5.178;2023-08-06T10:38:34;19.20;99.90
41838;DHT22;27511;52.042;5.178;2023-08-06T10:41:03;19.10;99.90
41838;DHT22;27511;52.042;5.178;2023-08-06T10:43:29;19.20;99.90
41838;DHT22;27511;52.042;5.178;2023-08-06T10:45:55;19.00;99.90
41838;DHT22;27511;52.042;5.178;2023-08-06T10:50:59;19.10;99.90
41838;DHT22;27511;52.042;5.178;2023-08-06T10:53:25;19.10;99.90
41838;DHT22;27511;52.042;5.178;2023-08-06T10:55:50;19.20;99.90
41838;DHT22;27511;52.042;5.178;2023-08-06T10:58:16;19.20;99.90
41838;DHT22;27511;52.042;5.178;2023-08-06T11:00:42;19.30;99.90
41838;DHT22;27511;52.042;5.178;2023-08-06T11:03:07;19.40;99.90
41838;DHT22;27511;52.042;5.178;2023-08-06T11:05:33;19.60;99.90
41838;DHT22;27511;52.042;5.178;2023-08-06T11:07:59;19.80;99.90
41838;DHT22;27511;52.042;5.178;2023-08-06T11:10:24;19.60;99.90
41838;DHT22;27511;52.042;5.178;2023-08-06T11:12:50;19.60;99.90
41838;DHT22;27511;52.042;5.178;2023-08-06T11:15:16;19.70;99.90
41838;DHT22;27511;52.042;5.178;2023-08-06T11:17:41;19.70;99.90
41838;DHT22;27511;52.042;5.178;2023-08-06T11:20:07;19.50;99.90
41838;DHT22;27511;52.042;5.178;2023-08-06T11:22:33;19.40;99.90
41838;DHT22;27511;52.042;5.178;2023-08-06T11:24:58;19.50;99.90
41838;DHT22;27511;52.042;5.178;2023-08-06T11:27:26;19.40;99.90
41838;DHT22;27511;52.042;5.178;2023-08-06T11:29:52;19.50;99.90
41838;DHT22;27511;52.042;5.178;2023-08-06T11:32:17;19.40;99.90
41838;DHT22;27511;52.042;5.178;2023-08-06T11:34:43;19.40;99.90
41838;DHT22;27511;52.042;5.178;2023-08-06T11:37:09;19.50;99.90
41838;DHT22;27511;52.042;5.178;2023-08-06T11:39:36;19.60;99.90
41838;DHT22;27511;52.042;5.178;2023-08-06T11:42:03;19.60;99.90
41838;DHT22;27511;52.042;5.178;2023-08-06T11:44:32;19.40;99.90
41838;DHT22;27511;52.042;5.178;2023-08-06T11:46:58;19.20;99.90
41838;DHT22;27511;52.042;5.178;2023-08-06T11:52:08;19.00;99.90
41838;DHT22;27511;52.042;5.178;2023-08-06T11:54:34;18.90;99.90
41838;DHT22;27511;52.042;5.178;2023-08-06T11:57:00;18.90;99.90
41838;DHT22;27511;52.042;5.178;2023-08-06T11:59:27;19.00;99.90
41838;DHT22;27511;52.042;5.178;2023-08-06T12:01:53;19.20;99.90
41838;DHT22;27511;52.042;5.178;2023-08-06T12:04:18;19.20;99.90
41838;DHT22;27511;52.042;5.178;2023-08-06T12:06:44;19.40;99.90
41838;DHT22;27511;52.042;5.178;2023-08-06T12:09:09;19.50;99.90
41838;DHT22;27511;52.042;5.178;2023-08-06T12:11:35;19.50;99.90
41838;DHT22;27511;52.042;5.178;2023-08-06T12:14:01;19.70;99.90
41838;DHT22;27511;52.042;5.178;2023-08-06T12:16:27;19.70;99.90
41838;DHT22;27511;52.042;5.178;2023-08-06T12:18:53;19.70;99.90
41838;DHT22;27511;52.042;5.178;2023-08-06T12:21:18;19.80;99.90
41838;DHT22;27511;52.042;5.178;2023-08-06T12:23:43;19.80;99.90
41838;DHT22;27511;52.042;5.178;2023-08-06T12:26:09;19.70;99.90
41838;DHT22;27511;52.042;5.178;2023-08-06T12:28:34;19.70;99.90
41838;DHT22;27511;52.042;5.178;2023-08-06T12:31:02;19.90;99.90
41838;DHT22;27511;52.042;5.178;2023-08-06T12:33:28;20.00;99.90
41838;DHT22;27511;52.042;5.178;2023-08-06T12:35:54;20.00;99.90
41838;DHT22;27511;52.042;5.178;2023-08-06T12:38:20;19.90;99.90
41838;DHT22;27511;52.042;5.178;2023-08-06T12:40:45;20.00;99.90
41838;DHT22;27511;52.042;5.178;2023-08-06T12:43:11;20.00;99.90
41838;DHT22;27511;52.042;5.178;2023-08-06T12:45:36;20.10;99.90
41838;DHT22;27511;52.042;5.178;2023-08-06T12:48:02;20.10;99.90
41838;DHT22;27511;52.042;5.178;2023-08-06T12:50:28;19.90;99.90
41838;DHT22;27511;52.042;5.178;2023-08-06T12:52:54;19.80;99.90
41838;DHT22;27511;52.042;5.178;2023-08-06T12:55:19;19.90;99.90
41838;DHT22;27511;52.042;5.178;2023-08-06T12:57:45;19.90;99.90
41838;DHT22;27511;52.042;5.178;2023-08-06T13:00:10;20.10;99.90
41838;DHT22;27511;52.042;5.178;2023-08-06T13:02:36;20.10;99.90
41838;DHT22;27511;52.042;5.178;2023-08-06T13:05:01;20.00;99.90
41838;DHT22;27511;52.042;5.178;2023-08-06T13:07:30;19.90;99.90
41838;DHT22;27511;52.042;5.178;2023-08-06T13:09:56;20.10;99.90
41838;DHT22;27511;52.042;5.178;2023-08-06T13:12:21;20.10;99.90
41838;DHT22;27511;52.042;5.178;2023-08-06T13:14:48;19.90;99.90
41838;DHT22;27511;52.042;5.178;2023-08-06T13:17:14;19.90;99.90
41838;DHT22;27511;52.042;5.178;2023-08-06T13:19:39;20.20;99.90
41838;DHT22;27511;52.042;5.178;2023-08-06T13:22:05;20.10;99.90
41838;DHT22;27511;52.042;5.178;2023-08-06T13:24:33;20.10;99.90
41838;DHT22;27511;52.042;5.178;2023-08-06T13:27:00;19.80;99.90
41838;DHT22;27511;52.042;5.178;2023-08-06T13:29:25;19.80;99.90
41838;DHT22;27511;52.042;5.178;2023-08-06T13:31:52;19.70;99.90
41838;DHT22;27511;52.042;5.178;2023-08-06T13:34:17;19.80;99.90
41838;DHT22;27511;52.042;5.178;2023-08-06T13:36:43;19.90;99.90
41838;DHT22;27511;52.042;5.178;2023-08-06T13:39:09;19.80;99.90
41838;DHT22;27511;52.042;5.178;2023-08-06T13:41:34;19.80;99.90
41838;DHT22;27511;52.042;5.178;2023-08-06T13:44:00;19.70;99.90
41838;DHT22;27511;52.042;5.178;2023-08-06T13:46:25;19.60;99.90
41838;DHT22;27511;52.042;5.178;2023-08-06T13:48:51;19.50;99.90
41838;DHT22;27511;52.042;5.178;2023-08-06T13:51:16;19.70;99.90
41838;DHT22;27511;52.042;5.178;2023-08-06T13:53:42;19.70;99.90
41838;DHT22;27511;52.042;5.178;2023-08-06T13:56:10;19.60;99.90
41838;DHT22;27511;52.042;5.178;2023-08-06T13:58:36;19.70;99.90
41838;DHT22;27511;52.042;5.178;2023-08-06T14:01:02;19.70;99.90
41838;DHT22;27511;52.042;5.178;2023-08-06T14:03:28;19.70;99.90
41838;DHT22;27511;52.042;5.178;2023-08-06T14:05:53;19.60;99.90
41838;DHT22;27511;52.042;5.178;2023-08-06T14:08:22;19.50;99.90
41838;DHT22;27511;52.042;5.178;2023-08-06T14:10:48;19.40;99.90
41838;DHT22;27511;52.042;5.178;2023-08-06T14:13:14;19.40;99.90
41838;DHT22;27511;52.042;5.178;2023-08-06T14:15:39;19.50;99.90
41838;DHT22;27511;52.042;5.178;2023-08-06T14:18:06;19.60;99.90
41838;DHT22;27511;52.042;5.178;2023-08-06T14:20:32;19.50;99.90
41838;DHT22;27511;52.042;5.178;2023-08-06T14:22:58;19.50;99.90
41838;DHT22;27511;52.042;5.178;2023-08-06T14:25:23;19.40;99.90
41838;DHT22;27511;52.042;5.178;2023-08-06T14:27:49;19.50;99.90
41838;DHT22;27511;52.042;5.178;2023-08-06T14:30:14;19.50;99.90
41838;DHT22;27511;52.042;5.178;2023-08-06T14:32:40;19.40;99.90
41838;DHT22;27511;52.042;5.178;2023-08-06T14:35:05;19.40;99.90
41838;DHT22;27511;52.042;5.178;2023-08-06T14:37:31;19.50;99.90
41838;DHT22;27511;52.042;5.178;2023-08-06T14:39:56;19.20;99.90
41838;DHT22;27511;52.042;5.178;2023-08-06T14:42:22;19.20;99.90
41838;DHT22;27511;52.042;5.178;2023-08-06T14:44:47;19.10;99.90
41838;DHT22;27511;52.042;5.178;2023-08-06T14:47:13;19.10;99.90
41838;DHT22;27511;52.042;5.178;2023-08-06T14:49:38;18.90;99.90
41838;DHT22;27511;52.042;5.178;2023-08-06T14:52:04;18.90;99.90
41838;DHT22;27511;52.042;5.178;2023-08-06T14:54:29;18.80;99.90
41838;DHT22;27511;52.042;5.178;2023-08-06T14:56:55;18.90;99.90
41838;DHT22;27511;52.042;5.178;2023-08-06T14:59:21;18.70;99.90
41838;DHT22;27511;52.042;5.178;2023-08-06T15:01:46;18.60;99.90
41838;DHT22;27511;52.042;5.178;2023-08-06T15:04:12;18.60;99.90
41838;DHT22;27511;52.042;5.178;2023-08-06T15:06:37;18.60;99.90
41838;DHT22;27511;52.042;5.178;2023-08-06T15:09:03;18.60;99.90
41838;DHT22;27511;52.042;5.178;2023-08-06T15:11:28;18.50;99.90
41838;DHT22;27511;52.042;5.178;2023-08-06T15:13:54;18.40;99.90
41838;DHT22;27511;52.042;5.178;2023-08-06T15:16:19;18.30;99.90
41838;DHT22;27511;52.042;5.178;2023-08-06T15:18:45;18.10;99.90
41838;DHT22;27511;52.042;5.178;2023-08-06T15:21:11;18.20;99.90
41838;DHT22;27511;52.042;5.178;2023-08-06T15:23:36;18.30;99.90
41838;DHT22;27511;52.042;5.178;2023-08-06T15:26:02;18.20;99.90
41838;DHT22;27511;52.042;5.178;2023-08-06T15:28:27;18.30;99.90
41838;DHT22;27511;52.042;5.178;2023-08-06T15:30:53;18.30;99.90
41838;DHT22;27511;52.042;5.178;2023-08-06T15:33:19;18.40;99.90
41838;DHT22;27511;52.042;5.178;2023-08-06T15:35:45;18.30;99.90
41838;DHT22;27511;52.042;5.178;2023-08-06T15:38:10;18.30;99.90